Time;durP1;ratioP1;P1;durP2;ratioP2;P2;SDS_P1;SDS_P2;PMS_P1;PMS_P2;Temp;Humidity;BMP_temperature;BMP_pressure;BME280_temperature;BME280_humidity;BME280_pressure;Samples;Min_cycle;Max_cycle;Signal;HPM_P1;HPM_P2
2023/06/14 00:12:47;;;;;;;9.82;3.88;;;;;;;24.14;100.00;99595.91;38204799;23;20040;-75
2023/06/14 00:27:50;;;;;;;12.23;4.93;;;;;;;23.36;100.00;99431.38;38208322;23;20017;-76
2023/06/14 00:42:52;;;;;;;11.02;3.40;;;;;;;22.78;100.00;99332.16;38208920;23;20032;-76
2023/06/14 00:57:55;;;;;;;5.15;3.50;;;;;;;22.95;100.00;99295.22;38183082;23;20022;-77
2023/06/14 01:13:23;;;;;;;8.67;3.90;;;;;;;23.25;100.00;99295.81;38202598;23;20250;-77
2023/06/14 01:28:31;;;;;;;7.35;3.70;;;;;;;22.88;100.00;99268.16;38202129;23;20028;-74
2023/06/14 01:43:34;;;;;;;10.10;4.28;;;;;;;23.13;100.00;99277.88;38174948;23;20084;-76
2023/06/14 01:58:36;;;;;;;7.50;3.50;;;;;;;22.95;100.00;99311.81;38201929;23;20558;-76
2023/06/14 02:13:38;;;;;;;6.97;3.65;;;;;;;22.84;100.00;99300.91;38198055;23;20026;-76
2023/06/14 02:28:40;;;;;;;6.32;3.67;;;;;;;22.72;100.00;99317.59;38198383;23;20028;-76
2023/06/14 02:43:43;;;;;;;14.93;4.10;;;;;;;22.87;100.00;99333.81;38171216;23;20022;-76
2023/06/14 02:58:45;;;;;;;6.20;3.63;;;;;;;22.91;100.00;99344.59;38198384;23;20022;-76
2023/06/14 03:13:47;;;;;;;7.32;4.15;;;;;;;22.92;100.00;99351.59;38197120;23;20029;-75
2023/06/14 03:28:49;;;;;;;9.35;4.57;;;;;;;22.74;100.00;99351.03;38209693;23;20030;-75
2023/06/14 03:43:51;;;;;;;8.32;4.20;;;;;;;22.77;100.00;99357.53;38210941;23;20021;-77
2023/06/14 03:58:53;;;;;;;8.52;5.10;;;;;;;23.04;100.00;99369.59;38184142;23;20032;-77
2023/06/14 04:13:56;;;;;;;12.73;4.68;;;;;;;22.50;100.00;99342.00;38206450;23;20035;-76
2023/06/14 04:29:01;;;;;;;6.75;5.32;;;;;;;22.57;100.00;99339.41;38207958;23;20076;-75
2023/06/14 04:44:04;;;;;;;9.50;5.22;;;;;;;22.58;100.00;99334.63;38208216;23;20383;-76
2023/06/14 04:59:06;;;;;;;10.10;5.55;;;;;;;22.89;100.00;99325.00;38182745;23;20028;-76
2023/06/14 05:14:08;;;;;;;8.65;5.55;;;;;;;23.13;100.00;99344.31;38206744;23;20064;-76
2023/06/14 05:29:10;;;;;;;8.48;5.50;;;;;;;23.18;100.00;99379.47;38205151;23;20025;-75
2023/06/14 05:44:12;;;;;;;10.18;5.88;;;;;;;23.56;100.00;99383.03;38199385;23;20036;-76
2023/06/14 05:59:14;;;;;;;7.75;5.55;;;;;;;23.80;100.00;99429.31;38198412;23;20032;-77
2023/06/14 06:14:16;;;;;;;10.43;5.05;;;;;;;24.48;100.00;99432.56;38170994;23;20026;-77
2023/06/14 06:29:18;;;;;;;9.15;5.30;;;;;;;25.03;100.00;99464.16;38201836;23;20471;-78
2023/06/14 06:44:20;;;;;;;7.18;5.10;;;;;;;26.58;100.00;99532.91;38202894;23;20022;-82
2023/06/14 06:59:22;;;;;;;10.27;4.95;;;;;;;27.29;100.00;99573.44;38212133;23;20470;-80
2023/06/14 07:14:24;;;;;;;9.47;4.20;;;;;;;26.79;100.00;99551.09;38183869;23;20031;-77
2023/06/14 07:29:26;;;;;;;9.18;4.43;;;;;;;26.38;100.00;99556.66;38211653;23;20029;-77
2023/06/14 07:44:31;;;;;;;9.37;4.40;;;;;;;26.84;100.00;99561.38;38213410;23;20025;-78
2023/06/14 07:59:33;;;;;;;9.95;4.57;;;;;;;27.50;100.00;99572.06;38202352;23;20025;-77
2023/06/14 08:14:35;;;;;;;10.65;3.97;;;;;;;28.13;100.00;99647.91;38220434;23;20031;-77
2023/06/14 08:29:40;;;;;;;6.75;3.60;;;;;;;28.31;100.00;99653.78;38200050;23;20475;-80
2023/06/14 08:44:42;;;;;;;8.82;3.70;;;;;;;28.21;100.00;99614.50;38218132;23;20026;-79
2023/06/14 08:59:53;;;;;;;9.50;4.57;;;;;;;28.22;100.00;99604.06;38209876;23;20021;-76
2023/06/14 09:14:55;;;;;;;8.65;5.20;;;;;;;27.78;100.00;99606.84;38182336;23;20037;-78
2023/06/14 09:29:57;;;;;;;27.77;16.53;;;;;;;27.77;100.00;99583.03;38185281;23;20028;-76
2023/06/14 09:44:59;;;;;;;8.30;4.30;;;;;;;27.40;100.00;99601.72;38216377;23;20108;-77
2023/06/14 10:00:09;;;;;;;11.57;5.17;;;;;;;27.55;100.00;99572.47;38196603;23;20096;-82
2023/06/14 10:15:20;;;;;;;25.88;17.02;;;;;;;27.77;100.00;99596.97;38189728;23;20048;-77
2023/06/14 10:30:25;;;;;;;7.82;5.57;;;;;;;27.99;100.00;99593.53;38215453;23;20348;-77
2023/06/14 10:45:27;;;;;;;8.65;6.60;;;;;;;27.90;100.00;99594.06;38215883;23;20021;-80
2023/06/14 11:00:37;;;;;;;11.40;7.40;;;;;;;28.33;100.00;99595.38;38211978;23;20459;-76
2023/06/14 11:15:44;;;;;;;11.32;8.18;;;;;;;28.49;100.00;99610.84;38213024;23;20369;-78
2023/06/14 11:30:46;;;;;;;12.15;6.35;;;;;;;28.40;100.00;99608.59;38221611;23;20057;-78
2023/06/14 11:45:51;;;;;;;9.17;6.53;;;;;;;28.80;100.00;99622.84;38213631;23;20484;-82
2023/06/14 12:01:09;;;;;;;15.60;7.68;;;;;;;29.00;100.00;99590.47;38188632;23;20029;-79
2023/06/14 12:16:12;;;;;;;13.73;8.13;;;;;;;28.85;100.00;99603.13;38191156;23;20025;-79
2023/06/14 12:31:16;;;;;;;25.10;11.48;;;;;;;29.25;100.00;99610.22;38211692;23;20352;-80
2023/06/14 12:46:18;;;;;;;8.77;5.88;;;;;;;29.40;100.00;99588.59;38212178;23;20101;-78
2023/06/14 13:01:20;;;;;;;13.63;5.77;;;;;;;30.29;100.00;99595.78;38209244;23;20033;-79
2023/06/14 13:16:23;;;;;;;9.73;4.20;;;;;;;30.53;100.00;99609.06;38212927;23;20044;-79
2023/06/14 13:31:25;;;;;;;21.73;15.50;;;;;;;29.77;100.00;99608.63;38194277;23;20733;-75
2023/06/14 13:46:27;;;;;;;12.95;6.78;;;;;;;29.07;100.00;99595.28;38208130;23;20467;-80
2023/06/14 14:01:30;;;;;;;8.80;5.17;;;;;;;28.48;100.00;99601.75;38186794;23;20025;-80
2023/06/14 14:16:32;;;;;;;9.23;6.38;;;;;;;28.65;100.00;99558.56;38182491;23;20333;-78
2023/06/14 14:31:34;;;;;;;12.88;6.05;;;;;;;28.48;100.00;99564.69;38209881;23;20032;-78
2023/06/14 14:46:37;;;;;;;11.60;5.47;;;;;;;28.58;100.00;99560.06;38178661;23;20025;-78
2023/06/14 15:01:40;;;;;;;9.45;5.72;;;;;;;28.47;100.00;99546.47;38204494;23;20447;-77
2023/06/14 15:16:42;;;;;;;9.82;4.45;;;;;;;28.64;100.00;99552.25;38208412;23;20076;-79
2023/06/14 15:31:44;;;;;;;13.93;5.17;;;;;;;28.73;100.00;99571.25;38208423;23;20026;-81
2023/06/14 15:46:47;;;;;;;;;;;;;;;28.88;100.00;99681.53;38190140;23;20100;-78
2023/06/14 16:01:52;;;;;;;8.93;4.78;;;;;;;28.46;100.00;99576.41;38226695;23;19916;-85
2023/06/14 16:16:54;;;;;;;12.40;6.60;;;;;;;28.26;100.00;99616.38;38212575;23;20168;-81
2023/06/14 16:31:56;;;;;;;;;;;;;;;28.38;100.00;99706.09;38181097;23;20022;-78
2023/06/14 16:47:00;;;;;;;16.38;7.78;;;;;;;27.98;100.00;99631.09;38203660;23;19976;-76
2023/06/14 17:02:03;;;;;;;13.40;8.27;;;;;;;27.88;100.00;99627.31;38198596;23;20032;-78
2023/06/14 17:17:07;;;;;;;16.63;8.65;;;;;;;27.61;100.00;99642.81;38194847;23;20328;-79
2023/06/14 17:32:09;;;;;;;17.00;7.83;;;;;;;27.44;100.00;99635.56;38205223;23;20025;-78
2023/06/14 17:47:11;;;;;;;11.33;6.93;;;;;;;27.20;100.00;99660.28;38178567;23;20021;-79
2023/06/14 18:02:31;;;;;;;17.65;7.90;;;;;;;26.99;100.00;99666.59;38201504;23;20479;-77
2023/06/14 18:17:35;;;;;;;10.93;7.43;;;;;;;26.63;100.00;99660.06;38197091;23;20029;-77
2023/06/14 18:32:37;;;;;;;10.90;7.00;;;;;;;26.47;100.00;99681.41;38200287;23;20586;-78
2023/06/14 18:47:40;;;;;;;13.37;7.90;;;;;;;26.56;100.00;99655.16;38179344;23;20022;-77
2023/06/14 19:02:42;;;;;;;12.07;7.78;;;;;;;26.42;100.00;99662.81;38211339;23;20036;-79
2023/06/14 19:17:57;;;;;;;14.70;8.13;;;;;;;26.41;100.00;99652.97;38214837;23;20317;-78
2023/06/14 19:33:00;;;;;;;13.18;8.40;;;;;;;26.12;100.00;99647.22;38186208;23;20022;-76
2023/06/14 19:48:02;;;;;;;12.63;8.45;;;;;;;26.11;100.00;99645.72;38196993;23;20029;-75
2023/06/14 20:03:20;;;;;;;12.57;7.90;;;;;;;25.88;100.00;99639.09;38190704;23;20093;-76
2023/06/14 20:18:23;;;;;;;14.85;7.50;;;;;;;25.77;100.00;99645.63;38195428;23;20029;-77
2023/06/14 20:33:25;;;;;;;55.60;29.93;;;;;;;25.46;100.00;99644.41;38196534;23;20060;-77
2023/06/14 20:48:28;;;;;;;17.70;8.88;;;;;;;25.44;100.00;99619.19;38187583;23;20333;-76
2023/06/14 21:03:31;;;;;;;27.40;15.10;;;;;;;25.05;100.00;99610.75;38186857;23;20036;-75
2023/06/14 21:18:33;;;;;;;15.65;9.13;;;;;;;24.82;100.00;99599.22;38187967;23;20030;-75
2023/06/14 21:33:35;;;;;;;14.20;8.25;;;;;;;24.74;100.00;99604.66;38183046;23;20026;-76
2023/06/14 21:48:37;;;;;;;12.90;8.40;;;;;;;24.59;100.00;99587.72;38170746;23;20022;-75
2023/06/14 22:03:39;;;;;;;42.08;22.25;;;;;;;24.37;100.00;99604.69;38199967;23;20337;-76
2023/06/14 22:18:41;;;;;;;12.50;7.82;;;;;;;24.28;100.00;99596.78;38197576;23;20021;-76
2023/06/14 22:33:43;;;;;;;15.23;9.02;;;;;;;23.95;100.00;99586.81;38220216;23;20025;-75
2023/06/14 22:48:45;;;;;;;13.35;7.95;;;;;;;23.68;100.00;99580.34;38217277;23;20494;-76
2023/06/14 23:03:48;;;;;;;13.30;7.63;;;;;;;23.34;100.00;99579.94;38192840;23;20029;-75
2023/06/14 23:18:51;;;;;;;15.45;7.53;;;;;;;23.14;100.00;99583.91;38218663;23;20025;-75
2023/06/14 23:33:55;;;;;;;12.97;7.43;;;;;;;23.01;100.00;99594.81;38213517;23;20100;-74
2023/06/14 23:48:57;;;;;;;;;;;;;;;23.07;100.00;99592.78;38204654;23;20017;-77
